createdAt,value
2019-06-10T00:00:21.227Z,20.98
2019-06-10T00:02:30.873Z,20.97
2019-06-10T00:04:41.370Z,20.96
2019-06-10T00:06:50.962Z,20.91
2019-06-10T00:09:03.144Z,20.88
2019-06-10T00:11:11.676Z,20.84
2019-06-10T00:13:20.917Z,20.80
2019-06-10T00:15:31.249Z,20.76
2019-06-10T00:17:53.149Z,20.77
2019-06-10T00:19:51.026Z,20.70
2019-06-10T00:21:59.901Z,20.70
2019-06-10T00:24:08.560Z,20.68
2019-06-10T00:26:16.712Z,20.65
2019-06-10T00:28:24.737Z,20.61
2019-06-10T00:30:32.852Z,20.60
2019-06-10T00:32:41.253Z,20.56
2019-06-10T00:34:50.836Z,20.57
2019-06-10T00:37:01.530Z,20.56
2019-06-10T00:39:13.115Z,20.54
2019-06-10T00:41:18.845Z,20.52
2019-06-10T00:43:26.842Z,20.49
2019-06-10T00:45:35.067Z,20.46
2019-06-10T00:47:43.074Z,20.46
2019-06-10T00:49:51.567Z,20.42
2019-06-10T00:52:02.497Z,20.38
2019-06-10T00:54:13.278Z,20.33
2019-06-10T00:56:21.517Z,20.28
2019-06-10T00:58:31.809Z,20.24
2019-06-10T01:00:41.333Z,20.23
2019-06-10T01:02:51.836Z,20.21
2019-06-10T01:05:00.834Z,20.19
2019-06-10T01:07:11.734Z,20.20
2019-06-10T01:09:19.036Z,20.18
2019-06-10T01:11:27.378Z,20.16
2019-06-10T01:13:35.636Z,20.11
2019-06-10T01:15:44.339Z,20.09
2019-06-10T01:17:52.494Z,20.08
2019-06-10T01:20:01.794Z,20.04
2019-06-10T01:22:11.099Z,20.02
2019-06-10T01:24:22.090Z,20.02
2019-06-10T01:26:31.026Z,19.99
2019-06-10T01:28:41.001Z,19.95
2019-06-10T01:30:51.551Z,19.87
2019-06-10T01:33:01.053Z,19.81
2019-06-10T01:35:13.067Z,19.75
2019-06-10T01:37:21.769Z,19.68
2019-06-10T01:39:30.854Z,19.65
2019-06-10T01:41:40.936Z,19.61
2019-06-10T01:43:51.250Z,19.60
2019-06-10T01:46:01.538Z,19.63
2019-06-10T01:48:12.083Z,19.65
2019-06-10T01:50:21.821Z,19.66
2019-06-10T01:52:32.067Z,19.69
2019-06-10T01:54:42.018Z,19.68
2019-06-10T01:56:51.054Z,19.67
2019-06-10T01:59:01.397Z,19.65
2019-06-10T02:01:18.693Z,19.63
2019-06-10T02:03:26.515Z,19.64
2019-06-10T02:05:35.050Z,19.62
2019-06-10T02:07:43.171Z,19.61
2019-06-10T02:09:51.814Z,19.63
2019-06-10T02:12:02.175Z,19.64
2019-06-10T02:14:14.441Z,19.65
2019-06-10T02:16:23.900Z,19.64
2019-06-10T02:18:31.899Z,19.65
2019-06-10T02:20:41.259Z,19.65
2019-06-10T02:22:51.603Z,19.65
2019-06-10T02:25:01.268Z,19.63
2019-06-10T02:27:11.730Z,19.63
2019-06-10T02:29:21.789Z,19.59
2019-06-10T02:31:36.552Z,19.58
2019-06-10T02:33:38.486Z,19.59
2019-06-10T02:35:49.181Z,19.55
2019-06-10T02:37:57.276Z,19.56
2019-06-10T02:40:08.701Z,19.55
2019-06-10T02:42:29.850Z,19.56
2019-06-10T02:44:34.294Z,19.58
2019-06-10T02:46:43.831Z,19.57
2019-06-10T02:48:54.316Z,19.57
2019-06-10T02:51:05.088Z,19.55
2019-06-10T02:53:15.255Z,19.56
2019-06-10T02:55:30.459Z,19.54
2019-06-10T02:57:39.470Z,19.54
2019-06-10T02:59:43.570Z,19.56
2019-06-10T03:01:53.662Z,19.59
2019-06-10T03:04:04.510Z,19.59
2019-06-10T03:06:14.370Z,19.61
2019-06-10T03:08:26.636Z,19.64
2019-06-10T03:10:33.939Z,19.68
2019-06-10T03:12:42.382Z,19.70
2019-06-10T03:14:52.498Z,19.72
2019-06-10T03:17:03.148Z,19.77
2019-06-10T03:19:14.389Z,19.79
2019-06-10T03:21:25.899Z,19.86
2019-06-10T03:23:33.885Z,19.96
2019-06-10T03:25:42.285Z,20.03
2019-06-10T03:27:52.523Z,20.13
2019-06-10T03:30:04.776Z,20.22
2019-06-10T03:32:14.508Z,20.29
2019-06-10T03:34:27.666Z,20.32
2019-06-10T03:36:32.236Z,20.37
2019-06-10T03:38:42.962Z,20.44
2019-06-10T03:40:52.462Z,20.51
2019-06-10T03:43:02.602Z,20.55
2019-06-10T03:45:13.804Z,20.57
2019-06-10T03:47:23.986Z,20.70
2019-06-10T03:49:32.193Z,20.85
2019-06-10T03:51:42.713Z,21.08
2019-06-10T03:53:50.264Z,21.29
2019-06-10T03:55:59.052Z,21.44
2019-06-10T03:58:07.067Z,21.55
2019-06-10T04:00:17.467Z,21.67
2019-06-10T04:02:27.197Z,21.74
2019-06-10T04:04:35.557Z,21.81
2019-06-10T04:06:44.457Z,21.88
2019-06-10T04:08:52.527Z,21.92
2019-06-10T04:11:02.896Z,21.95
2019-06-10T04:13:13.061Z,21.98
2019-06-10T04:15:23.157Z,22.01
2019-06-10T04:17:33.152Z,22.04
2019-06-10T04:19:42.120Z,22.07
2019-06-10T04:21:50.032Z,22.10
2019-06-10T04:24:02.055Z,22.12
2019-06-10T04:26:09.622Z,22.14
2019-06-10T04:28:17.847Z,22.15
2019-06-10T04:30:27.553Z,22.15
2019-06-10T04:32:35.737Z,22.13
2019-06-10T04:34:43.747Z,22.11
2019-06-10T04:36:52.699Z,22.10
2019-06-10T04:39:03.122Z,22.09
2019-06-10T04:41:12.582Z,22.11
2019-06-10T04:43:23.113Z,22.14
2019-06-10T04:45:32.452Z,22.14
2019-06-10T04:47:43.037Z,22.15
2019-06-10T04:49:52.227Z,22.17
2019-06-10T04:52:03.058Z,22.20
2019-06-10T04:54:13.103Z,22.22
2019-06-10T04:56:23.000Z,22.25
2019-06-10T04:58:33.100Z,22.27
2019-06-10T05:00:42.756Z,22.28
2019-06-10T05:02:52.080Z,22.29
2019-06-10T05:04:59.801Z,22.31
2019-06-10T05:07:08.714Z,22.35
2019-06-10T05:09:19.028Z,22.43
2019-06-10T05:11:28.638Z,22.50
2019-06-10T05:13:37.108Z,22.56
2019-06-10T05:15:46.237Z,22.65
2019-06-10T05:17:54.415Z,22.69
2019-06-10T05:20:02.874Z,22.78
2019-06-10T05:22:12.413Z,22.86
2019-06-10T05:24:25.148Z,22.94
2019-06-10T05:26:33.308Z,23.01
2019-06-10T05:28:42.964Z,23.11
2019-06-10T05:30:53.078Z,23.19
2019-06-10T05:33:02.603Z,23.24
2019-06-10T05:35:12.351Z,23.33
2019-06-10T05:37:23.318Z,23.43
2019-06-10T05:39:32.422Z,23.52
2019-06-10T05:41:43.075Z,23.58
2019-06-10T05:43:52.295Z,23.64
2019-06-10T05:46:03.038Z,23.74
2019-06-10T05:48:16.070Z,23.79
2019-06-10T05:50:22.477Z,23.81
2019-06-10T05:52:33.395Z,23.88
2019-06-10T05:54:42.984Z,24.00
2019-06-10T05:56:52.209Z,24.08
2019-06-10T05:59:02.256Z,24.17
2019-06-10T06:03:17.125Z,24.34
2019-06-10T06:05:26.009Z,24.40
2019-06-10T06:07:35.697Z,24.48
2019-06-10T06:09:43.844Z,24.49
2019-06-10T06:11:52.763Z,24.53
2019-06-10T06:14:02.685Z,24.56
2019-06-10T06:16:14.050Z,24.63
2019-06-10T06:18:22.603Z,24.68
2019-06-10T06:20:31.942Z,24.76
2019-06-10T06:22:42.678Z,24.82
2019-06-10T06:24:52.218Z,24.90
2019-06-10T06:27:02.502Z,24.93
2019-06-10T06:29:12.802Z,24.95
2019-06-10T06:31:20.373Z,25.03
2019-06-10T06:33:29.467Z,25.10
2019-06-10T06:35:42.875Z,25.15
2019-06-10T06:37:47.473Z,25.18
2019-06-10T06:39:55.497Z,25.21
2019-06-10T06:42:03.659Z,25.27
2019-06-10T06:44:13.056Z,25.29
2019-06-10T06:46:23.405Z,25.35
2019-06-10T06:48:36.625Z,25.40
2019-06-10T06:51:00.386Z,25.47
2019-06-10T06:53:18.868Z,25.53
2019-06-10T06:55:04.029Z,25.56
2019-06-10T06:57:13.040Z,25.61
2019-06-10T06:59:22.377Z,25.65
2019-06-10T07:01:34.683Z,25.65
2019-06-10T07:03:44.642Z,25.68
2019-06-10T07:05:52.978Z,25.77
2019-06-10T07:08:04.150Z,25.82
2019-06-10T07:10:12.525Z,25.89
2019-06-10T07:12:24.299Z,25.91
2019-06-10T07:14:37.214Z,25.96
2019-06-10T07:16:46.604Z,26.02
2019-06-10T07:18:55.076Z,26.06
2019-06-10T07:21:03.283Z,26.11
2019-06-10T07:23:12.972Z,26.19
2019-06-10T07:25:22.971Z,26.26
2019-06-10T07:27:34.156Z,26.33
2019-06-10T07:29:45.380Z,26.41
2019-06-10T07:31:53.504Z,26.45
2019-06-10T07:34:02.595Z,26.50
2019-06-10T07:36:13.202Z,26.56
2019-06-10T07:38:23.060Z,26.66
2019-06-10T07:40:33.436Z,26.73
2019-06-10T07:42:44.083Z,26.78
2019-06-10T07:44:53.291Z,26.82
2019-06-10T07:47:02.685Z,26.85
2019-06-10T07:49:13.255Z,26.87
2019-06-10T07:51:22.618Z,26.91
2019-06-10T07:53:33.139Z,26.93
2019-06-10T07:55:42.128Z,26.97
2019-06-10T07:57:52.919Z,26.99
2019-06-10T08:00:03.189Z,27.02
2019-06-10T08:02:12.380Z,27.08
2019-06-10T08:04:22.651Z,27.13
2019-06-10T08:06:33.084Z,27.19
2019-06-10T08:08:43.948Z,27.24
2019-06-10T08:10:52.803Z,27.32
2019-06-10T08:12:59.991Z,27.40
2019-06-10T08:15:08.890Z,27.50
2019-06-10T08:17:17.018Z,27.53
2019-06-10T08:19:34.525Z,27.59
2019-06-10T08:21:37.162Z,27.64
2019-06-10T08:23:46.924Z,27.71
2019-06-10T08:25:57.728Z,27.78
2019-06-10T08:28:04.558Z,27.86
2019-06-10T08:30:22.179Z,27.90
2019-06-10T08:32:24.476Z,27.96
2019-06-10T08:34:33.104Z,27.99
2019-06-10T08:36:46.330Z,28.02
2019-06-10T08:38:52.904Z,28.06
2019-06-10T08:41:03.254Z,28.08
2019-06-10T08:43:13.190Z,28.11
2019-06-10T08:45:24.032Z,28.20
2019-06-10T08:47:32.600Z,28.28
2019-06-10T08:49:44.053Z,28.41
2019-06-10T08:51:53.316Z,28.48
2019-06-10T08:54:02.435Z,28.49
2019-06-10T08:56:13.044Z,28.54
2019-06-10T08:58:23.107Z,28.59
2019-06-10T09:00:33.218Z,28.65
2019-06-10T09:02:45.202Z,28.75
2019-06-10T09:04:53.658Z,28.84
2019-06-10T09:07:04.170Z,28.87
2019-06-10T09:09:12.851Z,28.88
2019-06-10T09:11:23.590Z,28.98
2019-06-10T09:13:33.392Z,29.04
2019-06-10T09:15:43.763Z,29.13
2019-06-10T09:17:55.359Z,29.22
2019-06-10T09:20:02.932Z,29.28
2019-06-10T09:22:12.610Z,29.31
2019-06-10T09:24:22.246Z,29.36
2019-06-10T09:26:33.666Z,29.40
2019-06-10T09:28:45.065Z,29.44
2019-06-10T09:30:58.496Z,29.43
2019-06-10T09:33:04.737Z,29.52
2019-06-10T09:35:12.683Z,29.55
2019-06-10T09:37:23.330Z,29.62
2019-06-10T09:39:32.831Z,29.66
2019-06-10T09:41:47.574Z,29.70
2019-06-10T09:43:56.511Z,29.69
2019-06-10T09:46:03.513Z,29.79
2019-06-10T09:48:13.364Z,29.83
2019-06-10T09:50:26.244Z,29.90
2019-06-10T09:52:34.385Z,29.96
2019-06-10T09:54:47.236Z,30.01
2019-06-10T09:56:54.689Z,30.01
2019-06-10T09:59:03.919Z,30.01
2019-06-10T10:01:13.239Z,30.05
2019-06-10T10:03:23.915Z,30.12
2019-06-10T10:05:33.786Z,30.17
2019-06-10T10:07:46.299Z,30.18
2019-06-10T10:09:56.666Z,30.17
2019-06-10T10:12:03.032Z,30.13
2019-06-10T10:14:15.802Z,30.10
2019-06-10T10:16:22.440Z,30.09
2019-06-10T10:18:33.424Z,30.08
2019-06-10T10:20:44.831Z,30.11
2019-06-10T10:22:54.190Z,30.16
2019-06-10T10:25:02.799Z,30.25
2019-06-10T10:27:12.802Z,30.31
2019-06-10T10:29:20.199Z,30.46
2019-06-10T10:31:28.329Z,30.51
2019-06-10T10:33:36.963Z,30.51
2019-06-10T10:35:46.388Z,30.51
2019-06-10T10:37:55.826Z,30.51
2019-06-10T10:40:05.667Z,30.53
2019-06-10T10:42:13.795Z,30.58
2019-06-10T10:44:21.863Z,30.58
2019-06-10T10:46:29.895Z,30.59
2019-06-10T10:48:38.098Z,30.55
2019-06-10T10:50:47.462Z,30.54
2019-06-10T10:52:56.900Z,30.52
2019-06-10T10:55:07.065Z,30.47
2019-06-10T10:57:15.269Z,30.39
2019-06-10T10:59:23.438Z,30.36
2019-06-10T11:01:33.306Z,30.39
2019-06-10T11:03:44.062Z,30.51
2019-06-10T11:05:57.889Z,30.57
2019-06-10T11:08:04.190Z,30.64
2019-06-10T11:10:12.848Z,30.72
2019-06-10T11:12:23.005Z,30.81
2019-06-10T11:14:33.512Z,30.92
2019-06-10T11:16:43.109Z,31.05
2019-06-10T11:18:54.070Z,31.15
2019-06-10T11:21:04.674Z,31.28
2019-06-10T11:23:12.383Z,31.39
2019-06-10T11:25:23.087Z,31.45
2019-06-10T11:27:32.997Z,31.48
2019-06-10T11:29:42.286Z,31.50
2019-06-10T11:31:50.585Z,31.49
2019-06-10T11:34:00.358Z,31.41
2019-06-10T11:36:08.606Z,31.39
2019-06-10T11:38:16.792Z,31.28
2019-06-10T11:40:25.647Z,31.23
2019-06-10T11:42:34.754Z,31.37
2019-06-10T11:44:42.787Z,31.40
2019-06-10T11:46:54.014Z,31.39
2019-06-10T11:49:03.187Z,31.33
2019-06-10T11:51:12.950Z,31.29
2019-06-10T11:53:22.878Z,31.24
2019-06-10T11:55:30.428Z,31.22
2019-06-10T11:57:39.176Z,31.20
2019-06-10T11:59:48.312Z,31.20
2019-06-10T12:01:59.936Z,31.20
2019-06-10T12:04:06.510Z,31.23
2019-06-10T12:06:14.757Z,31.24
2019-06-10T12:08:23.954Z,31.29
2019-06-10T12:10:32.988Z,31.33
2019-06-10T12:12:43.309Z,31.41
2019-06-10T12:14:54.860Z,31.47
2019-06-10T12:17:32.626Z,31.49
2019-06-10T12:19:12.782Z,31.55
2019-06-10T12:21:22.961Z,31.54
2019-06-10T12:23:33.628Z,31.60
2019-06-10T12:25:43.670Z,31.67
2019-06-10T12:27:55.826Z,31.72
2019-06-10T12:30:05.001Z,31.76
2019-06-10T12:32:13.525Z,31.75
2019-06-10T12:34:22.725Z,31.67
2019-06-10T12:36:30.884Z,31.61
2019-06-10T12:38:39.051Z,31.54
2019-06-10T12:40:47.456Z,31.47
2019-06-10T12:42:57.966Z,31.42
2019-06-10T12:45:08.854Z,31.32
2019-06-10T12:47:17.147Z,31.39
2019-06-10T12:49:25.278Z,31.45
2019-06-10T12:51:33.359Z,31.48
2019-06-10T12:53:43.331Z,31.47
2019-06-10T12:55:53.617Z,31.43
2019-06-10T12:58:04.289Z,31.42
2019-06-10T13:00:22.724Z,31.42
2019-06-10T13:02:31.429Z,31.41
2019-06-10T13:04:38.404Z,31.40
2019-06-10T13:06:49.142Z,31.38
2019-06-10T13:08:58.041Z,31.36
2019-06-10T13:11:06.331Z,31.35
2019-06-10T13:13:15.500Z,31.38
2019-06-10T13:15:23.763Z,31.46
2019-06-10T13:17:31.846Z,31.54
2019-06-10T13:19:40.194Z,31.66
2019-06-10T13:21:48.464Z,31.77
2019-06-10T13:23:57.480Z,31.82
2019-06-10T13:26:10.831Z,31.84
2019-06-10T13:28:18.291Z,31.85
2019-06-10T13:30:26.474Z,31.81
2019-06-10T13:32:34.743Z,31.83
2019-06-10T13:34:42.894Z,31.89
2019-06-10T13:36:53.094Z,31.93
2019-06-10T13:39:06.268Z,32.05
2019-06-10T13:41:12.453Z,32.08
2019-06-10T13:43:22.932Z,32.07
2019-06-10T13:45:30.396Z,32.07
2019-06-10T13:47:38.655Z,32.06
2019-06-10T13:49:46.855Z,32.07
2019-06-10T13:51:55.958Z,32.08
2019-06-10T13:54:06.349Z,32.10
2019-06-10T13:56:38.244Z,32.12
2019-06-10T13:58:23.710Z,32.09
2019-06-10T14:00:45.761Z,32.06
2019-06-10T14:02:43.232Z,31.95
2019-06-10T14:04:53.261Z,31.85
2019-06-10T14:07:04.516Z,31.78
2019-06-10T14:09:16.279Z,31.66
2019-06-10T14:11:25.987Z,31.58
2019-06-10T14:13:32.562Z,31.50
2019-06-10T14:15:42.659Z,31.46
2019-06-10T14:17:52.737Z,31.36
2019-06-10T14:20:01.778Z,31.23
2019-06-10T14:22:12.174Z,31.15
2019-06-10T14:24:22.539Z,31.11
2019-06-10T14:26:40.880Z,31.11
2019-06-10T14:28:44.254Z,31.15
2019-06-10T14:30:53.840Z,31.16
2019-06-10T14:33:02.835Z,31.17
2019-06-10T14:35:15.551Z,31.20
2019-06-10T14:37:33.136Z,31.29
2019-06-10T14:39:32.912Z,31.32
2019-06-10T14:41:43.035Z,31.37
2019-06-10T14:43:53.140Z,31.43
2019-06-10T14:46:02.020Z,31.47
2019-06-10T14:48:11.475Z,31.53
2019-06-10T14:50:23.023Z,31.60
2019-06-10T14:52:32.070Z,31.72
2019-06-10T14:54:42.678Z,31.78
2019-06-10T14:56:56.380Z,31.84
2019-06-10T14:59:02.268Z,31.89
2019-06-10T15:01:12.056Z,32.00
2019-06-10T15:03:20.184Z,32.14
2019-06-10T15:05:29.230Z,32.24
2019-06-10T15:07:37.267Z,32.31
2019-06-10T15:09:45.334Z,32.36
2019-06-10T15:11:53.436Z,32.40
2019-06-10T15:14:02.829Z,32.44
2019-06-10T15:16:12.200Z,32.47
2019-06-10T15:18:23.802Z,32.47
2019-06-10T15:20:33.170Z,32.60
2019-06-10T15:22:43.120Z,32.98
2019-06-10T15:24:53.226Z,33.26
2019-06-10T15:27:10.143Z,33.45
2019-06-10T15:29:11.868Z,33.64
2019-06-10T15:31:20.524Z,33.69
2019-06-10T15:33:28.643Z,33.81
2019-06-10T15:35:36.814Z,33.97
2019-06-10T15:37:45.736Z,34.10
2019-06-10T15:39:53.903Z,34.12
2019-06-10T15:42:03.744Z,34.04
2019-06-10T15:44:14.635Z,33.90
2019-06-10T15:46:21.891Z,33.76
2019-06-10T15:48:29.878Z,33.68
2019-06-10T15:50:42.908Z,33.69
2019-06-10T15:52:52.417Z,33.64
2019-06-10T15:55:04.198Z,33.62
2019-06-10T15:57:28.524Z,33.44
2019-06-10T15:59:22.715Z,33.41
2019-06-10T16:01:32.634Z,33.41
2019-06-10T16:03:42.384Z,33.41
2019-06-10T16:05:52.806Z,33.34
2019-06-10T16:08:02.171Z,33.27
2019-06-10T16:10:12.845Z,33.14
2019-06-10T16:12:26.136Z,32.97
2019-06-10T16:14:33.199Z,32.80
2019-06-10T16:16:43.253Z,32.64
2019-06-10T16:18:52.815Z,32.50
2019-06-10T16:21:03.943Z,32.35
2019-06-10T16:23:12.249Z,32.21
2019-06-10T16:25:23.488Z,32.06
2019-06-10T16:27:46.333Z,31.93
2019-06-10T16:29:42.363Z,31.83
2019-06-10T16:31:50.128Z,31.70
2019-06-10T16:33:58.289Z,31.62
2019-06-10T16:36:06.554Z,31.53
2019-06-10T16:38:15.256Z,31.46
2019-06-10T16:40:25.798Z,31.40
2019-06-10T16:42:34.715Z,31.31
2019-06-10T16:44:43.085Z,31.22
2019-06-10T16:46:52.662Z,31.12
2019-06-10T16:49:03.272Z,31.01
2019-06-10T16:51:13.310Z,30.91
2019-06-10T16:53:28.014Z,30.83
2019-06-10T16:55:33.267Z,30.73
2019-06-10T16:57:41.762Z,30.64
2019-06-10T16:59:51.965Z,30.55
2019-06-10T17:02:02.126Z,30.51
2019-06-10T17:04:09.355Z,30.49
2019-06-10T17:06:17.543Z,30.44
2019-06-10T17:08:28.116Z,30.40
2019-06-10T17:10:35.516Z,30.38
2019-06-10T17:12:43.572Z,30.34
2019-06-10T17:14:52.644Z,30.29
2019-06-10T17:17:03.334Z,30.24
2019-06-10T17:19:10.842Z,30.18
2019-06-10T17:21:19.406Z,30.13
2019-06-10T17:23:32.573Z,30.05
2019-06-10T17:25:37.636Z,29.98
2019-06-10T17:27:45.776Z,29.92
2019-06-10T17:29:55.149Z,29.87
2019-06-10T17:32:04.227Z,29.81
2019-06-10T17:34:13.137Z,29.77
2019-06-10T17:36:25.744Z,29.73
2019-06-10T17:38:31.292Z,29.71
2019-06-10T17:40:39.368Z,29.68
2019-06-10T17:42:49.168Z,29.64
2019-06-10T17:44:57.424Z,29.59
2019-06-10T17:47:05.586Z,29.52
2019-06-10T17:49:13.617Z,29.45
2019-06-10T17:51:22.962Z,29.39
2019-06-10T17:53:34.708Z,29.34
2019-06-10T17:55:41.393Z,29.29
2019-06-10T17:57:49.446Z,29.19
2019-06-10T17:59:57.752Z,29.11
2019-06-10T18:02:06.023Z,29.02
2019-06-10T18:04:14.080Z,28.92
2019-06-10T18:06:23.840Z,28.83
2019-06-10T18:08:34.956Z,28.73
2019-06-10T18:10:43.481Z,28.65
2019-06-10T18:12:52.755Z,28.56
2019-06-10T18:15:03.342Z,28.45
2019-06-10T18:17:12.745Z,28.35
2019-06-10T18:19:22.237Z,28.26
2019-06-10T18:21:33.092Z,28.16
2019-06-10T18:23:43.244Z,28.07
2019-06-10T18:25:52.592Z,27.99
2019-06-10T18:28:00.097Z,27.91
2019-06-10T18:30:13.554Z,27.79
2019-06-10T18:32:20.112Z,27.71
2019-06-10T18:34:28.236Z,27.63
2019-06-10T18:36:37.681Z,27.57
2019-06-10T18:38:45.950Z,27.45
2019-06-10T18:40:54.200Z,27.35
2019-06-10T18:43:03.329Z,27.21
2019-06-10T18:45:15.255Z,27.05
2019-06-10T18:47:23.453Z,26.91
2019-06-10T18:49:33.992Z,26.76
2019-06-10T18:51:43.421Z,26.62
2019-06-10T18:53:51.293Z,26.47
2019-06-10T18:55:59.527Z,26.33
2019-06-10T18:58:07.562Z,26.18
2019-06-10T19:00:16.441Z,26.07
2019-06-10T19:02:24.519Z,25.96
2019-06-10T19:04:35.015Z,25.86
2019-06-10T19:06:43.260Z,25.79
2019-06-10T19:08:53.024Z,25.72
2019-06-10T19:11:02.402Z,25.65
2019-06-10T19:13:12.916Z,25.59
2019-06-10T19:15:21.005Z,25.52
2019-06-10T19:17:30.391Z,25.46
2019-06-10T19:19:40.980Z,25.40
2019-06-10T19:22:01.886Z,25.34
2019-06-10T19:23:59.616Z,25.26
2019-06-10T19:26:07.653Z,25.17
2019-06-10T19:28:15.713Z,25.10
2019-06-10T19:30:24.668Z,25.05
2019-06-10T19:32:34.081Z,24.97
2019-06-10T19:34:48.068Z,24.93
2019-06-10T19:36:53.308Z,24.86
2019-06-10T19:39:02.342Z,24.84
2019-06-10T19:41:12.976Z,24.80
2019-06-10T19:43:22.808Z,24.78
2019-06-10T19:45:32.119Z,24.77
2019-06-10T19:47:41.305Z,24.80
2019-06-10T19:49:52.225Z,24.83
2019-06-10T19:52:03.027Z,24.88
2019-06-10T19:54:12.791Z,24.94
2019-06-10T19:56:24.201Z,24.98
2019-06-10T19:58:32.355Z,24.98
2019-06-10T20:00:41.892Z,24.94
2019-06-10T20:02:52.467Z,24.90
2019-06-10T20:05:02.198Z,24.86
2019-06-10T20:07:12.832Z,24.80
2019-06-10T20:09:22.598Z,24.77
2019-06-10T20:11:32.192Z,24.80
2019-06-10T20:13:43.223Z,24.87
2019-06-10T20:15:52.549Z,24.94
2019-06-10T20:18:02.814Z,25.02
2019-06-10T20:20:13.599Z,25.10
2019-06-10T20:22:22.860Z,25.16
2019-06-10T20:24:33.898Z,25.24
2019-06-10T20:26:43.699Z,25.32
2019-06-10T20:28:54.830Z,25.34
2019-06-10T20:31:01.646Z,25.41
2019-06-10T20:33:09.768Z,25.43
2019-06-10T20:35:18.826Z,25.48
2019-06-10T20:37:26.967Z,25.48
2019-06-10T20:39:35.018Z,25.49
2019-06-10T20:41:49.436Z,25.52
2019-06-10T20:43:55.502Z,25.54
2019-06-10T20:46:05.912Z,25.52
2019-06-10T20:48:14.309Z,25.51
2019-06-10T20:50:23.155Z,25.52
2019-06-10T20:52:32.612Z,25.52
2019-06-10T20:54:42.974Z,25.51
2019-06-10T20:56:53.316Z,25.50
2019-06-10T20:59:02.624Z,25.49
2019-06-10T21:01:09.964Z,25.49
2019-06-10T21:03:18.954Z,25.48
2019-06-10T21:05:27.131Z,25.47
2019-06-10T21:07:39.145Z,25.45
2019-06-10T21:09:48.928Z,25.45
2019-06-10T21:11:57.774Z,25.46
2019-06-10T21:14:06.350Z,25.42
2019-06-10T21:16:14.381Z,25.41
2019-06-10T21:18:22.692Z,25.39
2019-06-10T21:20:33.050Z,25.38
2019-06-10T21:22:42.989Z,25.36
2019-06-10T21:24:51.357Z,25.32
2019-06-10T21:27:00.206Z,25.29
2019-06-10T21:29:08.476Z,25.30
2019-06-10T21:31:16.912Z,25.28
2019-06-10T21:33:25.054Z,25.25
2019-06-10T21:35:35.870Z,25.22
2019-06-10T21:37:45.650Z,25.21
2019-06-10T21:39:55.390Z,25.15
2019-06-10T21:42:04.529Z,25.13
2019-06-10T21:44:13.510Z,25.10
2019-06-10T21:46:22.659Z,25.08
2019-06-10T21:48:32.368Z,25.06
2019-06-10T21:50:43.808Z,25.05
2019-06-10T21:52:54.684Z,25.01
2019-06-10T21:55:03.130Z,24.97
2019-06-10T21:57:11.287Z,24.92
2019-06-10T21:59:19.394Z,24.90
2019-06-10T22:01:27.656Z,24.87
2019-06-10T22:03:35.858Z,24.83
2019-06-10T22:05:44.283Z,24.83
2019-06-10T22:07:56.358Z,24.79
2019-06-10T22:10:05.062Z,24.76
2019-06-10T22:12:13.100Z,24.72
2019-06-10T22:14:22.427Z,24.71
2019-06-10T22:16:32.872Z,24.67
2019-06-10T22:18:40.822Z,24.66
2019-06-10T22:20:49.072Z,24.64
2019-06-10T22:22:57.166Z,24.60
2019-06-10T22:25:07.841Z,24.58
2019-06-10T22:27:15.886Z,24.56
2019-06-10T22:29:24.326Z,24.54
2019-06-10T22:31:33.337Z,24.49
2019-06-10T22:33:43.153Z,24.46
2019-06-10T22:35:54.519Z,24.44
2019-06-10T22:38:03.013Z,24.42
2019-06-10T22:40:12.385Z,24.40
2019-06-10T22:42:22.347Z,24.38
2019-06-10T22:44:33.087Z,24.35
2019-06-10T22:46:42.526Z,24.32
2019-06-10T22:48:51.081Z,24.30
2019-06-10T22:50:59.580Z,24.28
2019-06-10T22:53:07.665Z,24.27
2019-06-10T22:55:15.717Z,24.24
2019-06-10T22:57:23.844Z,24.25
2019-06-10T22:59:32.762Z,24.24
2019-06-10T23:01:42.435Z,24.23
2019-06-10T23:03:50.539Z,24.22
2019-06-10T23:05:59.537Z,24.19
2019-06-10T23:08:08.292Z,24.14
2019-06-10T23:10:16.757Z,24.13
2019-06-10T23:12:24.785Z,24.07
2019-06-10T23:14:33.323Z,24.05
2019-06-10T23:16:42.739Z,23.99
2019-06-10T23:18:53.599Z,23.93
2019-06-10T23:21:03.543Z,23.87
2019-06-10T23:23:12.686Z,23.83
2019-06-10T23:25:22.154Z,23.78
2019-06-10T23:27:30.215Z,23.72
2019-06-10T23:29:39.939Z,23.68
2019-06-10T23:31:54.031Z,23.63
2019-06-10T23:33:57.800Z,23.59
2019-06-10T23:36:06.719Z,23.51
2019-06-10T23:38:15.058Z,23.41
2019-06-10T23:40:23.626Z,23.26
2019-06-10T23:42:32.305Z,23.22
2019-06-10T23:44:41.373Z,23.16
2019-06-10T23:46:49.427Z,23.17
2019-06-10T23:48:57.551Z,23.10
2019-06-10T23:51:05.768Z,22.96
2019-06-10T23:53:15.282Z,23.00
2019-06-10T23:55:23.416Z,22.95
2019-06-10T23:57:32.900Z,23.00
2019-06-10T23:59:42.786Z,23.00
